createdAt,value
2023-03-07T00:00:28.521Z,2.66
2023-03-07T00:02:40.403Z,2.61
2023-03-07T00:04:32.313Z,2.63
2023-03-07T00:06:34.245Z,2.65
2023-03-07T00:08:36.087Z,2.63
2023-03-07T00:10:37.591Z,2.58
2023-03-07T00:12:39.097Z,2.57
2023-03-07T00:14:40.773Z,2.64
2023-03-07T00:16:42.115Z,2.68
2023-03-07T00:18:43.169Z,2.66
2023-03-07T00:20:44.632Z,2.7
2023-03-07T00:24:47.250Z,2.6
2023-03-07T00:26:48.768Z,2.54
2023-03-07T00:28:50.714Z,2.6
2023-03-07T00:30:52.736Z,2.59
2023-03-07T00:32:54.501Z,2.55
2023-03-07T00:34:55.684Z,2.54
2023-03-07T00:36:57.090Z,2.56
2023-03-07T00:38:59.078Z,2.56
2023-03-07T00:41:00.378Z,2.54
2023-03-07T00:43:01.835Z,2.49
2023-03-07T00:45:03.073Z,2.53
2023-03-07T00:47:04.612Z,2.56
2023-03-07T00:49:06.168Z,2.53
2023-03-07T00:51:07.235Z,2.53
2023-03-07T00:53:09.034Z,2.57
2023-03-07T00:55:10.970Z,2.54
2023-03-07T00:57:12.904Z,2.56
2023-03-07T00:59:14.670Z,2.52
2023-03-07T01:01:16.165Z,2.52
2023-03-07T01:03:17.895Z,2.58
2023-03-07T01:07:20.551Z,2.55
2023-03-07T01:09:22.505Z,2.59
2023-03-07T01:11:24.049Z,2.55
2023-03-07T01:13:25.335Z,2.54
2023-03-07T01:15:27.044Z,2.55
2023-03-07T01:17:28.939Z,2.5
2023-03-07T01:19:30.865Z,2.52
2023-03-07T01:21:32.242Z,2.45
2023-03-07T01:23:33.834Z,2.47
2023-03-07T01:25:35.263Z,2.4
2023-03-07T01:27:36.643Z,2.36
2023-03-07T01:29:38.025Z,2.32
2023-03-07T01:31:39.580Z,2.3
2023-03-07T01:33:41.067Z,2.26
2023-03-07T01:35:42.474Z,2.19
2023-03-07T01:37:44.167Z,2.13
2023-03-07T01:39:45.979Z,2.06
2023-03-07T01:41:47.932Z,2.01
2023-03-07T01:43:49.300Z,1.96
2023-03-07T01:45:50.985Z,1.92
2023-03-07T01:49:53.608Z,1.81
2023-03-07T01:51:55.420Z,1.78
2023-03-07T01:53:56.564Z,1.75
2023-03-07T01:55:57.787Z,1.8
2023-03-07T01:57:59.747Z,1.81
2023-03-07T02:00:01.295Z,1.83
2023-03-07T02:02:02.376Z,1.85
2023-03-07T02:04:03.601Z,1.93
2023-03-07T02:06:04.952Z,1.9
2023-03-07T02:08:06.597Z,1.98
2023-03-07T02:10:07.725Z,1.98
2023-03-07T02:12:08.826Z,2.01
2023-03-07T02:14:10.411Z,2.04
2023-03-07T02:16:12.438Z,2.01
2023-03-07T02:18:13.475Z,2.04
2023-03-07T02:20:15.015Z,2.04
2023-03-07T02:22:16.873Z,2.02
2023-03-07T02:24:18.711Z,1.98
2023-03-07T02:26:20.223Z,1.99
2023-03-07T02:28:21.783Z,2.01
2023-03-07T02:30:23.108Z,1.98
2023-03-07T02:32:24.358Z,1.98
2023-03-07T02:34:26.243Z,1.92
2023-03-07T02:36:28.202Z,1.92
2023-03-07T02:38:29.815Z,1.89
2023-03-07T02:40:31.500Z,1.85
2023-03-07T02:42:33.182Z,1.82
2023-03-07T02:44:34.467Z,1.82
2023-03-07T02:46:36.304Z,1.78
2023-03-07T02:48:37.886Z,1.75
2023-03-07T02:50:39.380Z,1.77
2023-03-07T02:52:40.528Z,1.77
2023-03-07T02:54:41.798Z,1.72
2023-03-07T02:56:43.519Z,1.76
2023-03-07T02:58:44.858Z,1.72
2023-03-07T03:00:46.464Z,1.71
2023-03-07T03:02:48.181Z,1.69
2023-03-07T03:04:50.158Z,1.66
2023-03-07T03:06:51.425Z,1.63
2023-03-07T03:08:52.688Z,1.6
2023-03-07T03:10:54.170Z,1.55
2023-03-07T03:12:55.181Z,1.53
2023-03-07T03:14:56.432Z,1.49
2023-03-07T03:16:58.144Z,1.48
2023-03-07T03:18:59.786Z,1.43
2023-03-07T03:21:00.802Z,1.46
2023-03-07T03:23:02.106Z,1.47
2023-03-07T03:25:03.551Z,1.48
2023-03-07T03:27:05.369Z,1.47
2023-03-07T03:29:07.040Z,1.47
2023-03-07T03:31:09.073Z,1.46
2023-03-07T03:33:10.480Z,1.43
2023-03-07T03:35:12.205Z,1.42
2023-03-07T03:37:13.868Z,1.47
2023-03-07T03:39:15.046Z,1.43
2023-03-07T03:41:16.555Z,1.43
2023-03-07T03:43:18.221Z,1.43
2023-03-07T03:45:20.142Z,1.41
2023-03-07T03:47:21.251Z,1.43
2023-03-07T03:49:23.192Z,1.39
2023-03-07T03:51:24.548Z,1.38
2023-03-07T03:53:25.827Z,1.37
2023-03-07T03:55:27.342Z,1.35
2023-03-07T03:57:29.192Z,1.33
2023-03-07T03:59:30.910Z,1.29
2023-03-07T04:01:32.133Z,1.34
2023-03-07T04:03:33.066Z,1.32
2023-03-07T04:05:34.624Z,1.31
2023-03-07T04:07:36.642Z,1.28
2023-03-07T04:09:37.706Z,1.31
2023-03-07T04:11:39.236Z,1.37
2023-03-07T04:13:41.181Z,1.35
2023-03-07T04:15:43.004Z,1.34
2023-03-07T04:17:45.022Z,1.35
2023-03-07T04:19:47.015Z,1.35
2023-03-07T04:21:48.949Z,1.39
2023-03-07T04:23:50.635Z,1.42
2023-03-07T04:25:52.382Z,1.43
2023-03-07T04:27:54.278Z,1.46
2023-03-07T04:29:55.645Z,1.46
2023-03-07T04:31:57.512Z,1.46
2023-03-07T04:33:59.087Z,1.45
2023-03-07T04:36:00.497Z,1.49
2023-03-07T04:38:01.492Z,1.53
2023-03-07T04:40:02.941Z,1.5
2023-03-07T04:42:04.701Z,1.52
2023-03-07T04:44:06.574Z,1.54
2023-03-07T04:46:08.357Z,1.53
2023-03-07T04:48:09.596Z,1.54
2023-03-07T04:50:55.437Z,1.55
2023-03-07T04:52:57.578Z,1.61
2023-03-07T04:54:58.680Z,1.63
2023-03-07T04:57:00.216Z,1.62
2023-03-07T04:59:02.056Z,1.65
2023-03-07T05:01:03.524Z,1.66
2023-03-07T05:03:04.988Z,1.61
2023-03-07T05:05:06.423Z,1.63
2023-03-07T05:07:08.076Z,1.7
2023-03-07T05:09:09.240Z,1.7
2023-03-07T05:11:11.115Z,1.73
2023-03-07T05:13:12.869Z,1.72
2023-03-07T05:15:14.770Z,1.76
2023-03-07T05:17:16.100Z,1.76
2023-03-07T05:19:17.706Z,1.77
2023-03-07T05:21:19.386Z,1.73
2023-03-07T05:23:20.467Z,1.75
2023-03-07T05:25:21.681Z,1.79
2023-03-07T05:27:22.692Z,1.79
2023-03-07T05:29:24.117Z,1.75
2023-03-07T05:33:27.447Z,1.75
2023-03-07T05:35:28.541Z,1.77
2023-03-07T05:37:30.277Z,1.77
2023-03-07T05:39:32.042Z,1.76
2023-03-07T05:41:33.239Z,1.75
2023-03-07T05:43:34.895Z,1.75
2023-03-07T05:45:36.810Z,1.73
2023-03-07T05:47:38.462Z,1.69
2023-03-07T05:49:40.124Z,1.77
2023-03-07T05:51:41.917Z,1.85
2023-03-07T05:53:43.450Z,1.85
2023-03-07T05:55:44.644Z,1.79
2023-03-07T05:57:45.774Z,1.84
2023-03-07T05:59:47.401Z,1.89
2023-03-07T06:01:48.992Z,1.91
2023-03-07T06:03:50.401Z,1.94
2023-03-07T06:05:51.607Z,1.95
2023-03-07T06:07:53.316Z,1.94
2023-03-07T06:09:54.581Z,1.96
2023-03-07T06:11:55.861Z,2.01
2023-03-07T06:13:57.404Z,2.04
2023-03-07T06:15:59.236Z,2.06
2023-03-07T06:18:00.601Z,2.05
2023-03-07T06:20:02.396Z,2.03
2023-03-07T06:22:03.601Z,2.05
2023-03-07T06:24:05.599Z,2.09
2023-03-07T06:26:07.161Z,2.12
2023-03-07T06:28:08.566Z,2.09
2023-03-07T06:30:09.931Z,2.14
2023-03-07T06:32:11.405Z,2.2
2023-03-07T06:34:13.310Z,2.18
2023-03-07T06:36:15.273Z,2.23
2023-03-07T06:38:16.915Z,2.27
2023-03-07T06:40:18.193Z,2.25
2023-03-07T06:42:19.710Z,2.32
2023-03-07T06:44:21.714Z,2.31
2023-03-07T06:46:22.911Z,2.34
2023-03-07T06:48:24.836Z,2.39
2023-03-07T06:50:35.043Z,2.45
2023-03-07T06:52:28.417Z,2.46
2023-03-07T06:54:29.653Z,2.49
2023-03-07T06:58:32.532Z,2.52
2023-03-07T07:00:33.802Z,2.53
2023-03-07T07:02:35.996Z,2.56
2023-03-07T07:04:37.036Z,2.64
2023-03-07T07:06:38.904Z,2.62
2023-03-07T07:08:40.353Z,2.66
2023-03-07T07:10:42.319Z,2.67
2023-03-07T07:12:44.036Z,2.73
2023-03-07T07:14:45.118Z,2.78
2023-03-07T07:16:46.755Z,2.82
2023-03-07T07:18:48.240Z,2.89
2023-03-07T07:20:50.028Z,2.98
2023-03-07T07:22:51.747Z,2.99
2023-03-07T07:24:53.509Z,3.04
2023-03-07T07:26:55.366Z,3.11
2023-03-07T07:28:56.979Z,3.19
2023-03-07T07:30:58.368Z,3.23
2023-03-07T07:32:59.688Z,3.25
2023-03-07T07:35:01.023Z,3.25
2023-03-07T07:37:02.406Z,3.28
2023-03-07T07:39:04.301Z,3.3
2023-03-07T07:41:06.080Z,3.32
2023-03-07T07:43:07.763Z,3.33
2023-03-07T07:45:09.069Z,3.33
2023-03-07T07:47:10.096Z,3.49
2023-03-07T07:49:11.132Z,3.55
2023-03-07T07:51:12.691Z,3.65
2023-03-07T07:53:14.092Z,3.62
2023-03-07T07:55:15.538Z,3.67
2023-03-07T07:57:17.252Z,3.81
2023-03-07T07:59:18.586Z,3.89
2023-03-07T08:01:20.120Z,3.93
2023-03-07T08:03:21.484Z,4.01
2023-03-07T08:05:23.156Z,3.77
2023-03-07T08:07:24.233Z,3.9
2023-03-07T08:09:25.999Z,4.03
2023-03-07T08:11:27.617Z,4.06
2023-03-07T08:13:29.282Z,4.21
2023-03-07T08:15:30.379Z,4.02
2023-03-07T08:17:32.128Z,4.04
2023-03-07T08:19:33.794Z,4.02
2023-03-07T08:21:34.866Z,4.07
2023-03-07T08:23:36.526Z,4.11
2023-03-07T08:25:38.303Z,4.18
2023-03-07T08:27:39.357Z,4.29
2023-03-07T08:29:40.678Z,4.28
2023-03-07T08:31:41.840Z,4.32
2023-03-07T08:33:43.437Z,4.4
2023-03-07T08:35:44.460Z,4.46
2023-03-07T08:37:45.954Z,4.52
2023-03-07T08:39:47.593Z,4.67
2023-03-07T08:41:49.038Z,4.93
2023-03-07T08:43:50.545Z,5.07
2023-03-07T08:45:52.068Z,5.23
2023-03-07T08:47:53.706Z,5.07
2023-03-07T08:49:54.744Z,4.96
2023-03-07T08:51:56.498Z,5.38
2023-03-07T08:53:57.949Z,4.84
2023-03-07T08:55:59.423Z,5.01
2023-03-07T08:58:00.657Z,4.67
2023-03-07T09:00:02.545Z,4.78
2023-03-07T09:02:03.485Z,4.94
2023-03-07T09:04:04.733Z,4.82
2023-03-07T09:06:05.753Z,5.15
2023-03-07T09:08:07.508Z,5.1
2023-03-07T09:10:09.180Z,5.11
2023-03-07T09:12:10.416Z,5.15
2023-03-07T09:14:12.173Z,4.96
2023-03-07T09:16:13.669Z,5.37
2023-03-07T09:18:14.555Z,5.3
2023-03-07T09:20:15.473Z,5.48
2023-03-07T09:22:16.797Z,5.48
2023-03-07T09:24:17.775Z,5.46
2023-03-07T09:26:19.371Z,5.54
2023-03-07T09:28:20.577Z,5.6
2023-03-07T09:30:21.562Z,5.34
2023-03-07T09:32:23.464Z,5.51
2023-03-07T09:34:24.779Z,5.41
2023-03-07T09:36:26.604Z,5.53
2023-03-07T09:38:28.587Z,5.32
2023-03-07T09:40:30.085Z,5.35
2023-03-07T09:42:31.394Z,5.16
2023-03-07T09:44:33.023Z,5.53
2023-03-07T09:46:34.493Z,5.45
2023-03-07T09:48:36.226Z,5.39
2023-03-07T09:50:38.094Z,5.35
2023-03-07T09:52:39.854Z,5.56
2023-03-07T09:54:41.082Z,5.54
2023-03-07T09:56:42.785Z,5.47
2023-03-07T09:58:45.237Z,5.56
2023-03-07T10:00:46.685Z,5.69
2023-03-07T10:02:47.907Z,5.74
2023-03-07T10:04:49.531Z,6.11
2023-03-07T10:06:51.886Z,5.92
2023-03-07T10:08:53.278Z,6.12
2023-03-07T10:10:54.985Z,5.91
2023-03-07T10:12:55.949Z,5.6
2023-03-07T10:14:57.258Z,5.78
2023-03-07T10:16:58.861Z,5.79
2023-03-07T10:19:00.307Z,6.19
2023-03-07T10:21:02.736Z,5.98
2023-03-07T10:23:03.929Z,6.03
2023-03-07T10:25:05.743Z,5.78
2023-03-07T10:27:08.058Z,5.85
2023-03-07T10:29:09.856Z,5.54
2023-03-07T10:31:11.644Z,5.64
2023-03-07T10:33:13.172Z,5.82
2023-03-07T10:35:14.231Z,5.81
2023-03-07T10:37:16.519Z,5.83
2023-03-07T10:39:17.528Z,5.9
2023-03-07T10:41:18.613Z,5.81
2023-03-07T10:43:20.462Z,5.97
2023-03-07T10:45:22.005Z,6.09
2023-03-07T10:47:23.575Z,6.24
2023-03-07T10:49:25.217Z,6.05
2023-03-07T10:51:27.040Z,6.08
2023-03-07T10:53:28.753Z,6.01
2023-03-07T10:55:30.416Z,6.08
2023-03-07T10:57:31.826Z,5.97
2023-03-07T10:59:32.733Z,5.81
2023-03-07T11:01:34.409Z,5.85
2023-03-07T11:03:46.198Z,5.9
2023-03-07T11:05:37.167Z,5.65
2023-03-07T11:07:38.171Z,5.78
2023-03-07T11:09:39.523Z,5.82
2023-03-07T11:11:41.316Z,6
2023-03-07T11:13:42.330Z,5.83
2023-03-07T11:15:43.884Z,5.91
2023-03-07T11:17:44.778Z,5.86
2023-03-07T11:19:46.870Z,5.8
2023-03-07T11:21:49.430Z,6.1
2023-03-07T11:23:50.875Z,5.79
2023-03-07T11:25:52.584Z,5.72
2023-03-07T11:27:54.150Z,5.78
2023-03-07T11:29:55.518Z,5.71
2023-03-07T11:31:57.405Z,5.58
2023-03-07T11:33:59.823Z,5.8
2023-03-07T11:36:44.440Z,5.77
2023-03-07T11:38:45.968Z,5.82
2023-03-07T11:40:47.006Z,5.49
2023-03-07T11:42:48.259Z,5.57
2023-03-07T11:44:50.033Z,5.61
2023-03-07T11:46:51.255Z,5.5
2023-03-07T11:48:52.360Z,5.55
2023-03-07T11:50:53.850Z,5.47
2023-03-07T11:52:55.678Z,5.59
2023-03-07T11:56:58.237Z,5.78
2023-03-07T11:58:59.904Z,5.72
2023-03-07T12:01:01.712Z,5.62
2023-03-07T12:03:03.489Z,5.83
2023-03-07T12:05:04.840Z,5.77
2023-03-07T12:07:06.534Z,5.78
2023-03-07T12:09:07.852Z,6.02
2023-03-07T12:11:09.537Z,5.88
2023-03-07T12:13:10.914Z,5.99
2023-03-07T12:15:12.408Z,6.12
2023-03-07T12:17:14.337Z,5.92
2023-03-07T12:19:15.998Z,6.05
2023-03-07T12:21:17.663Z,6.08
2023-03-07T12:23:19.207Z,5.81
2023-03-07T12:25:20.390Z,5.88
2023-03-07T12:27:22.006Z,5.79
2023-03-07T12:29:23.083Z,6.02
2023-03-07T12:31:24.815Z,5.97
2023-03-07T12:33:27.400Z,5.82
2023-03-07T12:35:27.247Z,5.8
2023-03-07T12:39:30.065Z,5.82
2023-03-07T12:41:31.740Z,5.85
2023-03-07T12:43:33.298Z,5.88
2023-03-07T12:45:34.939Z,5.68
2023-03-07T12:47:36.001Z,5.71
2023-03-07T12:49:44.437Z,5.74
2023-03-07T12:51:38.969Z,5.52
2023-03-07T12:53:40.335Z,5.61
2023-03-07T12:55:41.777Z,5.5
2023-03-07T12:57:43.410Z,5.45
2023-03-07T12:59:44.595Z,5.44
2023-03-07T13:01:46.088Z,5.49
2023-03-07T13:03:47.767Z,5.52
2023-03-07T13:05:49.485Z,5.51
2023-03-07T13:07:51.022Z,5.49
2023-03-07T13:09:52.828Z,5.37
2023-03-07T13:11:54.165Z,5.38
2023-03-07T13:13:55.457Z,5.34
2023-03-07T13:15:56.873Z,5.35
2023-03-07T13:17:58.821Z,5.38
2023-03-07T13:22:01.951Z,5.41
2023-03-07T13:24:03.039Z,5.34
2023-03-07T13:26:04.981Z,5.39
2023-03-07T13:28:06.102Z,5.53
2023-03-07T13:30:07.511Z,5.58
2023-03-07T13:32:08.536Z,5.67
2023-03-07T13:34:10.451Z,5.68
2023-03-07T13:36:12.296Z,5.77
2023-03-07T13:38:14.180Z,5.84
2023-03-07T13:40:15.433Z,5.73
2023-03-07T13:42:16.925Z,5.85
2023-03-07T13:44:17.946Z,5.82
2023-03-07T13:46:19.639Z,5.76
2023-03-07T13:48:21.462Z,5.79
2023-03-07T13:50:23.211Z,5.88
2023-03-07T13:52:24.608Z,5.86
2023-03-07T13:54:25.842Z,5.97
2023-03-07T13:56:27.067Z,5.98
2023-03-07T13:58:28.197Z,6.02
2023-03-07T14:00:29.286Z,6
2023-03-07T14:02:30.765Z,6.09
2023-03-07T14:04:39.739Z,5.9
2023-03-07T14:06:32.916Z,6.07
2023-03-07T14:08:34.060Z,6.01
2023-03-07T14:10:35.209Z,5.89
2023-03-07T14:12:36.882Z,6.05
2023-03-07T14:14:37.851Z,5.91
2023-03-07T14:16:39.019Z,6.04
2023-03-07T14:18:40.160Z,6.1
2023-03-07T14:20:41.347Z,6.27
2023-03-07T14:22:44.076Z,6.19
2023-03-07T14:24:45.093Z,6.26
2023-03-07T14:26:46.916Z,6.22
2023-03-07T14:28:48.517Z,6.23
2023-03-07T14:30:49.906Z,6.07
2023-03-07T14:32:51.244Z,6.12
2023-03-07T14:34:52.971Z,6.27
2023-03-07T14:36:54.704Z,6.42
2023-03-07T14:38:56.569Z,6.36
2023-03-07T14:40:57.869Z,6.23
2023-03-07T14:42:59.031Z,6.11
2023-03-07T14:45:00.208Z,6.18
2023-03-07T14:47:01.256Z,6.34
2023-03-07T14:49:02.360Z,6.19
2023-03-07T14:51:03.623Z,6.15
2023-03-07T14:53:05.012Z,6.04
2023-03-07T14:55:06.803Z,6.04
2023-03-07T14:57:07.902Z,6.09
2023-03-07T14:59:19.357Z,5.91
2023-03-07T15:01:10.950Z,5.88
2023-03-07T15:03:12.806Z,5.74
2023-03-07T15:05:14.412Z,5.72
2023-03-07T15:07:16.361Z,5.74
2023-03-07T15:09:17.795Z,5.65
2023-03-07T15:11:19.330Z,5.61
2023-03-07T15:13:21.093Z,5.59
2023-03-07T15:15:22.566Z,5.54
2023-03-07T15:17:24.437Z,5.54
2023-03-07T15:19:25.818Z,5.57
2023-03-07T15:21:26.767Z,5.54
2023-03-07T15:23:27.838Z,5.65
2023-03-07T15:25:29.162Z,5.64
2023-03-07T15:27:30.519Z,5.59
2023-03-07T15:29:31.949Z,5.53
2023-03-07T15:31:33.922Z,5.57
2023-03-07T15:33:35.192Z,5.59
2023-03-07T15:35:37.173Z,5.51
2023-03-07T15:37:38.842Z,5.58
2023-03-07T15:39:40.689Z,5.58
2023-03-07T15:41:42.485Z,5.62
2023-03-07T15:43:44.217Z,5.57
2023-03-07T15:45:46.098Z,5.54
2023-03-07T15:47:48.043Z,5.56
2023-03-07T15:49:49.743Z,5.54
2023-03-07T15:51:50.942Z,5.49
2023-03-07T15:53:52.290Z,5.54
2023-03-07T15:55:54.073Z,5.53
2023-03-07T15:57:55.096Z,5.53
2023-03-07T15:59:56.245Z,5.53
2023-03-07T16:01:57.518Z,5.51
2023-03-07T16:03:59.520Z,5.53
2023-03-07T16:06:00.573Z,5.55
2023-03-07T16:08:02.512Z,5.57
2023-03-07T16:10:04.267Z,5.54
2023-03-07T16:12:05.295Z,5.6
2023-03-07T16:14:07.116Z,5.61
2023-03-07T16:16:08.948Z,5.56
2023-03-07T16:18:10.536Z,5.62
2023-03-07T16:20:12.328Z,5.67
2023-03-07T16:22:13.652Z,5.63
2023-03-07T16:24:15.235Z,5.62
2023-03-07T16:28:17.908Z,5.58
2023-03-07T16:30:19.918Z,5.59
2023-03-07T16:32:21.112Z,5.57
2023-03-07T16:34:22.627Z,5.55
2023-03-07T16:36:23.734Z,5.56
2023-03-07T16:38:25.541Z,5.56
2023-03-07T16:40:26.829Z,5.51
2023-03-07T16:42:28.077Z,5.5
2023-03-07T16:44:29.481Z,5.5
2023-03-07T16:46:31.182Z,5.47
2023-03-07T16:48:32.738Z,5.43
2023-03-07T16:50:34.325Z,5.38
2023-03-07T16:52:36.109Z,5.35
2023-03-07T16:54:37.692Z,5.35
2023-03-07T16:56:39.145Z,5.3
2023-03-07T16:58:40.316Z,5.27
2023-03-07T17:00:42.089Z,5.19
2023-03-07T17:02:43.695Z,5.13
2023-03-07T17:04:45.246Z,5.1
2023-03-07T17:06:50.554Z,5.11
2023-03-07T17:08:48.474Z,5.08
2023-03-07T17:10:49.582Z,5.07
2023-03-07T17:12:51.384Z,5.06
2023-03-07T17:14:52.820Z,5.01
2023-03-07T17:16:53.876Z,5.02
2023-03-07T17:18:55.529Z,5.03
2023-03-07T17:20:56.998Z,5.02
2023-03-07T17:22:58.904Z,4.99
2023-03-07T17:25:00.240Z,5.02
2023-03-07T17:27:01.463Z,4.94
2023-03-07T17:29:02.488Z,4.93
2023-03-07T17:31:03.862Z,4.91
2023-03-07T17:33:05.248Z,4.87
2023-03-07T17:35:06.858Z,4.86
2023-03-07T17:37:08.831Z,4.8
2023-03-07T17:39:10.107Z,4.79
2023-03-07T17:41:11.962Z,4.79
2023-03-07T17:43:13.459Z,4.72
2023-03-07T17:45:15.080Z,4.77
2023-03-07T17:47:16.906Z,4.73
2023-03-07T17:49:17.858Z,4.76
2023-03-07T17:51:19.328Z,4.76
2023-03-07T17:53:21.191Z,4.8
2023-03-07T17:55:22.501Z,4.71
2023-03-07T17:57:24.362Z,4.76
2023-03-07T17:59:25.883Z,4.7
2023-03-07T18:01:27.059Z,4.58
2023-03-07T18:03:28.344Z,4.7
2023-03-07T18:05:30.191Z,4.62
2023-03-07T18:07:31.785Z,4.67
2023-03-07T18:09:32.925Z,4.61
2023-03-07T18:11:34.318Z,4.61
2023-03-07T18:13:35.899Z,4.64
2023-03-07T18:15:36.931Z,4.66
2023-03-07T18:17:47.149Z,4.66
2023-03-07T18:19:40.268Z,4.69
2023-03-07T18:20:24.171Z,4.73
2023-03-07T18:22:25.248Z,4.73
2023-03-07T18:24:26.633Z,4.7
2023-03-07T18:26:28.281Z,4.71
2023-03-07T18:28:29.766Z,4.77
2023-03-07T18:30:31.716Z,4.77
2023-03-07T18:32:33.418Z,4.75
2023-03-07T18:34:34.797Z,4.75
2023-03-07T18:36:36.465Z,4.76
2023-03-07T18:38:37.576Z,4.74
2023-03-07T18:40:39.588Z,4.71
2023-03-07T18:42:41.237Z,4.74
2023-03-07T18:44:42.493Z,4.79
2023-03-07T18:46:44.593Z,4.81
2023-03-07T18:48:45.632Z,4.8
2023-03-07T18:50:47.040Z,4.84
2023-03-07T18:52:48.796Z,4.91
2023-03-07T18:54:50.324Z,4.94
2023-03-07T18:56:52.084Z,4.89
2023-03-07T18:58:53.020Z,4.85
2023-03-07T19:00:54.249Z,4.86
2023-03-07T19:02:56.208Z,4.86
2023-03-07T19:04:57.200Z,4.9
2023-03-07T19:06:58.786Z,4.91
2023-03-07T19:09:00.006Z,4.88
2023-03-07T19:11:01.110Z,4.94
2023-03-07T19:13:02.182Z,4.93
2023-03-07T19:15:03.653Z,4.98
2023-03-07T19:17:05.005Z,4.96
2023-03-07T19:19:06.440Z,4.95
2023-03-07T19:21:08.132Z,5.02
2023-03-07T19:23:09.628Z,5.02
2023-03-07T19:25:11.047Z,5.01
2023-03-07T19:29:14.238Z,5.02
2023-03-07T19:31:15.557Z,5.06
2023-03-07T19:33:16.816Z,5.02
2023-03-07T19:35:17.841Z,5.02
2023-03-07T19:37:19.335Z,5.05
2023-03-07T19:39:20.857Z,5.04
2023-03-07T19:41:22.770Z,5.01
2023-03-07T19:43:24.753Z,5.03
2023-03-07T19:45:26.069Z,5.06
2023-03-07T19:47:27.554Z,5.06
2023-03-07T19:49:29.174Z,5.05
2023-03-07T19:51:30.545Z,5.05
2023-03-07T19:53:31.710Z,5.06
2023-03-07T19:55:33.237Z,5.01
2023-03-07T19:57:34.752Z,5.07
2023-03-07T19:59:36.586Z,4.99
2023-03-07T20:01:38.461Z,5.12
2023-03-07T20:03:40.218Z,5.02
2023-03-07T20:05:41.366Z,4.99
2023-03-07T20:07:42.319Z,5.06
2023-03-07T20:09:43.401Z,5.05
2023-03-07T20:11:45.213Z,5.06
2023-03-07T20:13:46.632Z,5.05
2023-03-07T20:15:48.051Z,5.07
2023-03-07T20:17:49.108Z,5.1
2023-03-07T20:19:50.848Z,5.14
2023-03-07T20:21:52.834Z,5.1
2023-03-07T20:23:54.246Z,5.09
2023-03-07T20:25:55.498Z,5.09
2023-03-07T20:27:57.036Z,5.09
2023-03-07T20:29:58.726Z,5.08
2023-03-07T20:32:00.045Z,5.12
2023-03-07T20:34:01.129Z,5.14
2023-03-07T20:36:02.935Z,5.13
2023-03-07T20:38:04.824Z,5.05
2023-03-07T20:40:05.854Z,5.1
2023-03-07T20:42:07.265Z,5.07
2023-03-07T20:44:09.169Z,5.11
2023-03-07T20:46:12.610Z,5.09
2023-03-07T20:48:11.893Z,5.1
2023-03-07T20:50:13.760Z,5.11
2023-03-07T20:52:15.473Z,5.13
2023-03-07T20:54:16.721Z,5.08
2023-03-07T20:56:18.426Z,5.06
2023-03-07T20:58:19.865Z,5.04
2023-03-07T21:00:21.336Z,5.02
2023-03-07T21:02:23.154Z,5
2023-03-07T21:04:24.132Z,4.97
2023-03-07T21:06:25.557Z,5.04
2023-03-07T21:08:26.624Z,4.98
2023-03-07T21:10:28.039Z,5
2023-03-07T21:12:29.942Z,4.94
2023-03-07T21:14:31.273Z,4.93
2023-03-07T21:16:33.194Z,4.95
2023-03-07T21:18:34.859Z,4.91
2023-03-07T21:20:36.646Z,4.9
2023-03-07T21:22:37.624Z,4.9
2023-03-07T21:24:38.952Z,4.96
2023-03-07T21:26:40.098Z,4.91
2023-03-07T21:28:41.121Z,4.9
2023-03-07T21:30:42.577Z,4.92
2023-03-07T21:32:43.581Z,4.98
2023-03-07T21:34:45.281Z,4.93
2023-03-07T21:36:46.405Z,4.94
2023-03-07T21:38:47.786Z,4.88
2023-03-07T21:40:49.311Z,4.85
2023-03-07T21:42:50.631Z,4.86
2023-03-07T21:44:52.142Z,4.81
2023-03-07T21:46:53.752Z,4.8
2023-03-07T21:48:55.371Z,4.78
2023-03-07T21:50:57.391Z,4.8
2023-03-07T21:52:58.410Z,4.79
2023-03-07T21:54:59.889Z,4.74
2023-03-07T21:57:01.754Z,4.78
2023-03-07T21:59:02.912Z,4.75
2023-03-07T22:01:04.523Z,4.81
2023-03-07T22:03:05.964Z,4.85
2023-03-07T22:05:07.866Z,4.83
2023-03-07T22:07:09.075Z,4.79
2023-03-07T22:09:10.058Z,4.78
2023-03-07T22:11:12.028Z,4.79
2023-03-07T22:13:13.546Z,4.9
2023-03-07T22:15:14.647Z,4.8
2023-03-07T22:17:16.046Z,4.84
2023-03-07T22:19:17.242Z,4.87
2023-03-07T22:21:18.652Z,4.92
2023-03-07T22:23:20.349Z,4.9
2023-03-07T22:25:21.994Z,4.87
2023-03-07T22:27:23.882Z,4.85
2023-03-07T22:29:25.807Z,4.82
2023-03-07T22:31:27.715Z,4.8
2023-03-07T22:35:30.723Z,4.83
2023-03-07T22:37:31.768Z,4.84
2023-03-07T22:39:33.515Z,4.8
2023-03-07T22:41:34.699Z,4.82
2023-03-07T22:43:36.514Z,4.81
2023-03-07T22:45:37.971Z,4.83
2023-03-07T22:47:39.334Z,4.84
2023-03-07T22:49:41.152Z,4.81
2023-03-07T22:51:42.493Z,4.82
2023-03-07T22:53:44.109Z,4.8
2023-03-07T22:55:45.439Z,4.87
2023-03-07T22:57:47.137Z,4.84
2023-03-07T22:59:48.622Z,4.88
2023-03-07T23:01:49.898Z,4.82
2023-03-07T23:03:51.576Z,4.83
2023-03-07T23:05:53.448Z,4.87
2023-03-07T23:07:54.696Z,4.84
2023-03-07T23:09:56.615Z,4.84
2023-03-07T23:11:58.161Z,4.79
2023-03-07T23:13:59.738Z,4.83
2023-03-07T23:18:03.114Z,4.86
2023-03-07T23:20:04.594Z,4.82
2023-03-07T23:22:05.783Z,4.79
2023-03-07T23:24:07.267Z,4.79
2023-03-07T23:26:08.569Z,4.8
2023-03-07T23:28:10.214Z,4.81
2023-03-07T23:30:11.166Z,4.86
2023-03-07T23:32:12.460Z,4.85
2023-03-07T23:34:13.556Z,4.89
2023-03-07T23:36:14.571Z,4.83
2023-03-07T23:38:15.858Z,4.81
2023-03-07T23:40:16.910Z,4.8
2023-03-07T23:42:18.692Z,4.78
2023-03-07T23:44:20.234Z,4.79
2023-03-07T23:46:21.364Z,4.82
2023-03-07T23:48:22.845Z,4.79
2023-03-07T23:50:24.185Z,4.79
2023-03-07T23:52:25.967Z,4.81
2023-03-07T23:54:27.530Z,4.79
2023-03-07T23:56:29.323Z,4.81
2023-03-07T23:58:31.272Z,4.76
